sensor_id;sensor_type;location;lat;lon;timestamp;temperature;humidity
22319;DHT22;11327;52.334;9.506;2023-02-28T00:01:53;1.00;99.90
22319;DHT22;11327;52.334;9.506;2023-02-28T00:05:17;1.00;99.90
22319;DHT22;11327;52.334;9.506;2023-02-28T00:08:38;1.00;99.90
22319;DHT22;11327;52.334;9.506;2023-02-28T00:11:59;1.00;99.90
22319;DHT22;11327;52.334;9.506;2023-02-28T00:15:20;1.00;99.90
22319;DHT22;11327;52.334;9.506;2023-02-28T00:18:41;0.90;99.90
22319;DHT22;11327;52.334;9.506;2023-02-28T00:22:02;0.90;99.90
22319;DHT22;11327;52.334;9.506;2023-02-28T00:25:24;0.80;99.90
22319;DHT22;11327;52.334;9.506;2023-02-28T00:28:45;0.80;99.90
22319;DHT22;11327;52.334;9.506;2023-02-28T00:32:06;0.70;99.90
22319;DHT22;11327;52.334;9.506;2023-02-28T00:35:27;0.70;99.90
22319;DHT22;11327;52.334;9.506;2023-02-28T00:38:48;0.60;99.90
22319;DHT22;11327;52.334;9.506;2023-02-28T00:42:09;0.60;99.90
22319;DHT22;11327;52.334;9.506;2023-02-28T00:45:30;0.60;99.90
22319;DHT22;11327;52.334;9.506;2023-02-28T00:48:50;0.50;99.90
22319;DHT22;11327;52.334;9.506;2023-02-28T00:52:11;0.50;99.90
22319;DHT22;11327;52.334;9.506;2023-02-28T00:55:32;0.40;99.90
22319;DHT22;11327;52.334;9.506;2023-02-28T00:58:52;0.40;99.90
22319;DHT22;11327;52.334;9.506;2023-02-28T01:02:13;0.40;99.90
22319;DHT22;11327;52.334;9.506;2023-02-28T01:05:34;0.30;99.90
22319;DHT22;11327;52.334;9.506;2023-02-28T01:08:54;0.30;99.90
22319;DHT22;11327;52.334;9.506;2023-02-28T01:12:15;0.30;99.90
22319;DHT22;11327;52.334;9.506;2023-02-28T01:15:37;0.40;99.90
22319;DHT22;11327;52.334;9.506;2023-02-28T01:18:58;0.40;99.90
22319;DHT22;11327;52.334;9.506;2023-02-28T01:22:19;0.40;99.90
22319;DHT22;11327;52.334;9.506;2023-02-28T01:25:40;0.40;99.90
22319;DHT22;11327;52.334;9.506;2023-02-28T01:29:00;0.30;99.90
22319;DHT22;11327;52.334;9.506;2023-02-28T01:32:21;0.30;99.90
22319;DHT22;11327;52.334;9.506;2023-02-28T01:35:42;0.20;99.90
22319;DHT22;11327;52.334;9.506;2023-02-28T01:39:03;0.20;99.90
22319;DHT22;11327;52.334;9.506;2023-02-28T01:42:23;0.10;99.90
22319;DHT22;11327;52.334;9.506;2023-02-28T01:45:44;0.10;99.90
22319;DHT22;11327;52.334;9.506;2023-02-28T01:49:09;0.00;99.90
22319;DHT22;11327;52.334;9.506;2023-02-28T01:52:30;0.00;99.90
22319;DHT22;11327;52.334;9.506;2023-02-28T01:55:53;-0.10;99.90
22319;DHT22;11327;52.334;9.506;2023-02-28T01:59:21;-0.20;99.90
22319;DHT22;11327;52.334;9.506;2023-02-28T02:02:44;-0.20;99.90
22319;DHT22;11327;52.334;9.506;2023-02-28T02:06:06;-0.30;99.90
22319;DHT22;11327;52.334;9.506;2023-02-28T02:09:27;-0.40;99.90
22319;DHT22;11327;52.334;9.506;2023-02-28T02:13:10;-0.40;99.90
22319;DHT22;11327;52.334;9.506;2023-02-28T02:16:45;-0.40;99.90
22319;DHT22;11327;52.334;9.506;2023-02-28T02:27:27;-0.50;99.90
22319;DHT22;11327;52.334;9.506;2023-02-28T02:38:06;-0.70;99.90
22319;DHT22;11327;52.334;9.506;2023-02-28T02:44:58;-0.80;99.90
22319;DHT22;11327;52.334;9.506;2023-02-28T02:48:19;-0.90;99.90
22319;DHT22;11327;52.334;9.506;2023-02-28T02:51:41;-0.90;99.90
22319;DHT22;11327;52.334;9.506;2023-02-28T02:55:03;-0.90;99.90
22319;DHT22;11327;52.334;9.506;2023-02-28T02:58:29;-0.90;99.90
22319;DHT22;11327;52.334;9.506;2023-02-28T03:01:53;-0.90;99.90
22319;DHT22;11327;52.334;9.506;2023-02-28T03:05:21;-1.00;99.90
22319;DHT22;11327;52.334;9.506;2023-02-28T03:08:42;-1.00;99.90
22319;DHT22;11327;52.334;9.506;2023-02-28T03:12:03;-1.00;99.90
22319;DHT22;11327;52.334;9.506;2023-02-28T03:15:31;-1.00;99.90
22319;DHT22;11327;52.334;9.506;2023-02-28T03:19:12;-1.00;99.90
22319;DHT22;11327;52.334;9.506;2023-02-28T03:22:51;-1.10;99.90
22319;DHT22;11327;52.334;9.506;2023-02-28T03:26:19;-1.10;99.90
22319;DHT22;11327;52.334;9.506;2023-02-28T03:29:47;-1.20;99.90
22319;DHT22;11327;52.334;9.506;2023-02-28T03:33:21;-1.20;99.90
22319;DHT22;11327;52.334;9.506;2023-02-28T03:36:52;-1.30;99.90
22319;DHT22;11327;52.334;9.506;2023-02-28T03:40:23;-1.30;99.90
22319;DHT22;11327;52.334;9.506;2023-02-28T03:44:01;-1.30;99.90
22319;DHT22;11327;52.334;9.506;2023-02-28T03:47:31;-1.40;99.90
22319;DHT22;11327;52.334;9.506;2023-02-28T03:50:55;-1.40;99.90
22319;DHT22;11327;52.334;9.506;2023-02-28T03:54:19;-1.40;99.90
22319;DHT22;11327;52.334;9.506;2023-02-28T03:58:10;-1.40;99.90
22319;DHT22;11327;52.334;9.506;2023-02-28T04:01:43;-1.50;99.90
22319;DHT22;11327;52.334;9.506;2023-02-28T04:05:04;-1.50;99.90
22319;DHT22;11327;52.334;9.506;2023-02-28T04:08:25;-1.60;99.90
22319;DHT22;11327;52.334;9.506;2023-02-28T04:11:51;-1.60;99.90
22319;DHT22;11327;52.334;9.506;2023-02-28T04:15:12;-1.60;99.90
22319;DHT22;11327;52.334;9.506;2023-02-28T04:18:33;-1.60;99.90
22319;DHT22;11327;52.334;9.506;2023-02-28T04:21:54;-1.60;99.90
22319;DHT22;11327;52.334;9.506;2023-02-28T04:25:15;-1.60;99.90
22319;DHT22;11327;52.334;9.506;2023-02-28T04:28:37;-1.70;99.90
22319;DHT22;11327;52.334;9.506;2023-02-28T04:31:59;-1.60;99.90
22319;DHT22;11327;52.334;9.506;2023-02-28T04:35:20;-1.70;99.90
22319;DHT22;11327;52.334;9.506;2023-02-28T04:38:41;-1.70;99.90
22319;DHT22;11327;52.334;9.506;2023-02-28T04:42:03;-1.70;99.90
22319;DHT22;11327;52.334;9.506;2023-02-28T04:45:24;-1.80;99.90
22319;DHT22;11327;52.334;9.506;2023-02-28T04:48:45;-1.80;99.90
22319;DHT22;11327;52.334;9.506;2023-02-28T04:52:06;-1.80;99.90
22319;DHT22;11327;52.334;9.506;2023-02-28T04:55:28;-1.90;99.90
22319;DHT22;11327;52.334;9.506;2023-02-28T04:58:49;-1.90;99.90
22319;DHT22;11327;52.334;9.506;2023-02-28T05:02:11;-2.00;99.90
22319;DHT22;11327;52.334;9.506;2023-02-28T05:05:32;-2.10;99.90
22319;DHT22;11327;52.334;9.506;2023-02-28T05:08:53;-2.10;99.90
22319;DHT22;11327;52.334;9.506;2023-02-28T05:12:14;-2.10;99.90
22319;DHT22;11327;52.334;9.506;2023-02-28T05:15:35;-2.10;99.90
22319;DHT22;11327;52.334;9.506;2023-02-28T05:18:55;-2.20;99.90
22319;DHT22;11327;52.334;9.506;2023-02-28T05:22:16;-2.20;99.90
22319;DHT22;11327;52.334;9.506;2023-02-28T05:25:37;-2.20;99.90
22319;DHT22;11327;52.334;9.506;2023-02-28T05:28:57;-2.20;99.90
22319;DHT22;11327;52.334;9.506;2023-02-28T05:32:18;-2.20;99.90
22319;DHT22;11327;52.334;9.506;2023-02-28T05:35:40;-2.30;99.90
22319;DHT22;11327;52.334;9.506;2023-02-28T05:39:01;-2.30;99.90
22319;DHT22;11327;52.334;9.506;2023-02-28T05:42:22;-2.30;99.90
22319;DHT22;11327;52.334;9.506;2023-02-28T05:45:42;-2.30;99.90
22319;DHT22;11327;52.334;9.506;2023-02-28T05:49:03;-2.40;99.90
22319;DHT22;11327;52.334;9.506;2023-02-28T05:52:24;-2.40;99.90
22319;DHT22;11327;52.334;9.506;2023-02-28T05:55:45;-2.40;99.90
22319;DHT22;11327;52.334;9.506;2023-02-28T05:59:06;-2.50;99.90
22319;DHT22;11327;52.334;9.506;2023-02-28T06:02:27;-2.40;99.90
22319;DHT22;11327;52.334;9.506;2023-02-28T06:05:48;-2.40;99.90
22319;DHT22;11327;52.334;9.506;2023-02-28T06:09:09;-2.40;99.90
22319;DHT22;11327;52.334;9.506;2023-02-28T06:12:30;-2.40;99.90
22319;DHT22;11327;52.334;9.506;2023-02-28T06:15:50;-2.40;99.90
22319;DHT22;11327;52.334;9.506;2023-02-28T06:19:11;-2.40;99.90
22319;DHT22;11327;52.334;9.506;2023-02-28T06:22:32;-2.30;99.90
22319;DHT22;11327;52.334;9.506;2023-02-28T06:25:53;-2.40;99.90
22319;DHT22;11327;52.334;9.506;2023-02-28T06:29:16;-2.40;99.90
22319;DHT22;11327;52.334;9.506;2023-02-28T06:32:39;-2.30;99.90
22319;DHT22;11327;52.334;9.506;2023-02-28T06:36:00;-2.30;99.90
22319;DHT22;11327;52.334;9.506;2023-02-28T06:39:21;-2.20;99.90
22319;DHT22;11327;52.334;9.506;2023-02-28T06:42:42;-2.20;99.90
22319;DHT22;11327;52.334;9.506;2023-02-28T06:46:06;-2.20;99.90
22319;DHT22;11327;52.334;9.506;2023-02-28T06:49:27;-2.20;99.90
22319;DHT22;11327;52.334;9.506;2023-02-28T06:52:48;-2.20;99.90
22319;DHT22;11327;52.334;9.506;2023-02-28T06:56:11;-2.20;99.90
22319;DHT22;11327;52.334;9.506;2023-02-28T06:59:32;-2.20;99.90
22319;DHT22;11327;52.334;9.506;2023-02-28T07:02:53;-2.20;99.90
22319;DHT22;11327;52.334;9.506;2023-02-28T07:06:15;-2.10;99.90
22319;DHT22;11327;52.334;9.506;2023-02-28T07:09:38;-2.10;99.90
22319;DHT22;11327;52.334;9.506;2023-02-28T07:12:59;-2.00;99.90
22319;DHT22;11327;52.334;9.506;2023-02-28T07:16:21;-2.00;99.90
22319;DHT22;11327;52.334;9.506;2023-02-28T07:19:42;-1.90;99.90
22319;DHT22;11327;52.334;9.506;2023-02-28T07:23:03;-1.90;99.90
22319;DHT22;11327;52.334;9.506;2023-02-28T07:26:24;-1.80;99.90
22319;DHT22;11327;52.334;9.506;2023-02-28T07:29:44;-1.80;99.90
22319;DHT22;11327;52.334;9.506;2023-02-28T07:33:05;-1.70;99.90
22319;DHT22;11327;52.334;9.506;2023-02-28T07:36:26;-1.60;99.90
22319;DHT22;11327;52.334;9.506;2023-02-28T07:39:47;-1.60;99.90
22319;DHT22;11327;52.334;9.506;2023-02-28T07:43:07;-1.50;99.90
22319;DHT22;11327;52.334;9.506;2023-02-28T07:46:28;-1.40;99.90
22319;DHT22;11327;52.334;9.506;2023-02-28T07:49:51;-1.20;99.90
22319;DHT22;11327;52.334;9.506;2023-02-28T07:53:11;-1.20;99.90
22319;DHT22;11327;52.334;9.506;2023-02-28T07:56:32;-1.10;99.90
22319;DHT22;11327;52.334;9.506;2023-02-28T07:59:53;-0.90;99.90
22319;DHT22;11327;52.334;9.506;2023-02-28T08:03:13;-0.80;99.90
22319;DHT22;11327;52.334;9.506;2023-02-28T08:06:34;-0.70;99.90
22319;DHT22;11327;52.334;9.506;2023-02-28T08:09:55;-0.60;99.90
22319;DHT22;11327;52.334;9.506;2023-02-28T08:13:16;-0.50;99.90
22319;DHT22;11327;52.334;9.506;2023-02-28T08:16:37;-0.40;99.90
22319;DHT22;11327;52.334;9.506;2023-02-28T08:19:59;-0.30;99.90
22319;DHT22;11327;52.334;9.506;2023-02-28T08:23:19;-0.20;99.90
22319;DHT22;11327;52.334;9.506;2023-02-28T08:26:40;-0.10;99.90
22319;DHT22;11327;52.334;9.506;2023-02-28T08:30:01;-0.10;99.90
22319;DHT22;11327;52.334;9.506;2023-02-28T08:33:23;0.00;99.90
22319;DHT22;11327;52.334;9.506;2023-02-28T08:36:44;0.10;99.90
22319;DHT22;11327;52.334;9.506;2023-02-28T08:40:07;0.20;99.90
22319;DHT22;11327;52.334;9.506;2023-02-28T08:43:28;0.30;99.90
22319;DHT22;11327;52.334;9.506;2023-02-28T08:46:49;0.40;99.90
22319;DHT22;11327;52.334;9.506;2023-02-28T08:50:10;0.50;99.90
22319;DHT22;11327;52.334;9.506;2023-02-28T08:53:31;0.60;99.90
22319;DHT22;11327;52.334;9.506;2023-02-28T08:56:52;0.70;99.90
22319;DHT22;11327;52.334;9.506;2023-02-28T09:00:13;0.80;99.90
22319;DHT22;11327;52.334;9.506;2023-02-28T09:03:34;1.00;99.90
22319;DHT22;11327;52.334;9.506;2023-02-28T09:06:54;1.00;99.90
22319;DHT22;11327;52.334;9.506;2023-02-28T09:10:16;1.10;99.90
22319;DHT22;11327;52.334;9.506;2023-02-28T09:13:37;1.20;99.90
22319;DHT22;11327;52.334;9.506;2023-02-28T09:16:58;1.40;99.90
22319;DHT22;11327;52.334;9.506;2023-02-28T09:20:19;1.40;99.90
22319;DHT22;11327;52.334;9.506;2023-02-28T09:23:41;1.60;99.90
22319;DHT22;11327;52.334;9.506;2023-02-28T09:27:02;1.60;99.90
22319;DHT22;11327;52.334;9.506;2023-02-28T09:30:23;1.80;99.90
22319;DHT22;11327;52.334;9.506;2023-02-28T09:33:43;1.70;99.90
22319;DHT22;11327;52.334;9.506;2023-02-28T09:37:04;1.90;99.90
22319;DHT22;11327;52.334;9.506;2023-02-28T09:40:26;2.00;99.90
22319;DHT22;11327;52.334;9.506;2023-02-28T09:43:50;2.20;99.90
22319;DHT22;11327;52.334;9.506;2023-02-28T09:50:41;2.30;99.90
22319;DHT22;11327;52.334;9.506;2023-02-28T09:54:04;2.40;99.90
22319;DHT22;11327;52.334;9.506;2023-02-28T10:01:03;2.60;99.90
22319;DHT22;11327;52.334;9.506;2023-02-28T10:08:11;3.10;99.90
22319;DHT22;11327;52.334;9.506;2023-02-28T10:11:34;3.30;99.90
22319;DHT22;11327;52.334;9.506;2023-02-28T10:14:58;3.50;99.90
22319;DHT22;11327;52.334;9.506;2023-02-28T10:18:23;3.80;99.90
22319;DHT22;11327;52.334;9.506;2023-02-28T10:25:21;4.20;99.90
22319;DHT22;11327;52.334;9.506;2023-02-28T10:28:42;4.50;99.90
22319;DHT22;11327;52.334;9.506;2023-02-28T10:32:03;4.70;99.90
22319;DHT22;11327;52.334;9.506;2023-02-28T10:35:26;4.90;99.90
22319;DHT22;11327;52.334;9.506;2023-02-28T10:38:48;5.20;99.90
22319;DHT22;11327;52.334;9.506;2023-02-28T10:49:26;6.00;99.90
22319;DHT22;11327;52.334;9.506;2023-02-28T10:52:49;6.20;99.90
22319;DHT22;11327;52.334;9.506;2023-02-28T10:59:34;6.40;99.90
22319;DHT22;11327;52.334;9.506;2023-02-28T11:02:56;6.00;99.90
22319;DHT22;11327;52.334;9.506;2023-02-28T11:06:22;5.80;99.90
22319;DHT22;11327;52.334;9.506;2023-02-28T11:09:49;6.00;99.90
22319;DHT22;11327;52.334;9.506;2023-02-28T11:13:19;6.30;99.90
22319;DHT22;11327;52.334;9.506;2023-02-28T11:16:40;6.20;99.90
22319;DHT22;11327;52.334;9.506;2023-02-28T11:20:04;6.30;99.90
22319;DHT22;11327;52.334;9.506;2023-02-28T11:23:29;6.60;99.90
22319;DHT22;11327;52.334;9.506;2023-02-28T11:26:50;6.70;99.90
22319;DHT22;11327;52.334;9.506;2023-02-28T11:33:57;7.20;99.90
22319;DHT22;11327;52.334;9.506;2023-02-28T11:37:19;7.50;99.90
22319;DHT22;11327;52.334;9.506;2023-02-28T11:48:04;7.90;99.90
22319;DHT22;11327;52.334;9.506;2023-02-28T11:51:33;8.00;99.90
22319;DHT22;11327;52.334;9.506;2023-02-28T12:02:28;8.50;99.90
22319;DHT22;11327;52.334;9.506;2023-02-28T12:13:24;7.70;99.90
22319;DHT22;11327;52.334;9.506;2023-02-28T12:20:48;7.50;99.90
22319;DHT22;11327;52.334;9.506;2023-02-28T12:27:44;7.90;99.90
22319;DHT22;11327;52.334;9.506;2023-02-28T12:31:09;8.00;99.90
22319;DHT22;11327;52.334;9.506;2023-02-28T12:34:40;8.00;99.90
22319;DHT22;11327;52.334;9.506;2023-02-28T12:38:12;8.20;99.90
22319;DHT22;11327;52.334;9.506;2023-02-28T12:41:46;8.40;99.90
22319;DHT22;11327;52.334;9.506;2023-02-28T12:45:11;8.60;99.90
22319;DHT22;11327;52.334;9.506;2023-02-28T12:48:42;8.50;99.90
22319;DHT22;11327;52.334;9.506;2023-02-28T12:52:03;8.40;99.90
22319;DHT22;11327;52.334;9.506;2023-02-28T13:10:22;6.80;99.90
22319;DHT22;11327;52.334;9.506;2023-02-28T13:13:44;6.90;99.90
22319;DHT22;11327;52.334;9.506;2023-02-28T13:17:11;6.90;99.90
22319;DHT22;11327;52.334;9.506;2023-02-28T13:20:37;6.90;99.90
22319;DHT22;11327;52.334;9.506;2023-02-28T13:24:03;6.90;99.90
22319;DHT22;11327;52.334;9.506;2023-02-28T13:27:37;7.10;99.90
22319;DHT22;11327;52.334;9.506;2023-02-28T13:31:03;7.00;99.90
22319;DHT22;11327;52.334;9.506;2023-02-28T13:34:23;7.20;99.90
22319;DHT22;11327;52.334;9.506;2023-02-28T13:37:47;7.30;99.90
22319;DHT22;11327;52.334;9.506;2023-02-28T13:48:26;7.30;99.90
22319;DHT22;11327;52.334;9.506;2023-02-28T13:51:51;7.40;99.90
22319;DHT22;11327;52.334;9.506;2023-02-28T13:55:28;7.40;99.90
22319;DHT22;11327;52.334;9.506;2023-02-28T13:59:04;7.40;99.90
22319;DHT22;11327;52.334;9.506;2023-02-28T14:02:54;7.40;99.90
22319;DHT22;11327;52.334;9.506;2023-02-28T14:09:48;7.50;99.90
22319;DHT22;11327;52.334;9.506;2023-02-28T14:17:03;7.40;99.90
22319;DHT22;11327;52.334;9.506;2023-02-28T14:20:27;7.40;99.90
22319;DHT22;11327;52.334;9.506;2023-02-28T14:31:18;7.50;99.90
22319;DHT22;11327;52.334;9.506;2023-02-28T14:34:51;7.50;99.90
22319;DHT22;11327;52.334;9.506;2023-02-28T14:38:17;7.50;99.90
22319;DHT22;11327;52.334;9.506;2023-02-28T14:41:40;7.60;99.90
22319;DHT22;11327;52.334;9.506;2023-02-28T14:45:01;7.60;99.90
22319;DHT22;11327;52.334;9.506;2023-02-28T14:48:23;7.60;99.90
22319;DHT22;11327;52.334;9.506;2023-02-28T14:51:45;7.60;99.90
22319;DHT22;11327;52.334;9.506;2023-02-28T14:55:12;7.60;99.90
22319;DHT22;11327;52.334;9.506;2023-02-28T14:58:33;7.50;99.90
22319;DHT22;11327;52.334;9.506;2023-02-28T15:02:18;7.50;99.90
22319;DHT22;11327;52.334;9.506;2023-02-28T15:05:39;7.40;99.90
22319;DHT22;11327;52.334;9.506;2023-02-28T15:09:17;7.40;99.90
22319;DHT22;11327;52.334;9.506;2023-02-28T15:12:40;7.30;99.90
22319;DHT22;11327;52.334;9.506;2023-02-28T15:16:03;7.40;99.90
22319;DHT22;11327;52.334;9.506;2023-02-28T15:19:34;7.30;99.90
22319;DHT22;11327;52.334;9.506;2023-02-28T15:22:56;7.30;99.90
22319;DHT22;11327;52.334;9.506;2023-02-28T15:26:20;7.20;99.90
22319;DHT22;11327;52.334;9.506;2023-02-28T15:29:47;7.20;99.90
22319;DHT22;11327;52.334;9.506;2023-02-28T15:33:21;7.20;99.90
22319;DHT22;11327;52.334;9.506;2023-02-28T15:36:43;7.20;99.90
22319;DHT22;11327;52.334;9.506;2023-02-28T15:40:16;7.20;99.90
22319;DHT22;11327;52.334;9.506;2023-02-28T15:43:38;7.20;99.90
22319;DHT22;11327;52.334;9.506;2023-02-28T15:47:16;7.10;99.90
22319;DHT22;11327;52.334;9.506;2023-02-28T15:50:37;7.00;99.90
22319;DHT22;11327;52.334;9.506;2023-02-28T15:54:20;7.00;99.90
22319;DHT22;11327;52.334;9.506;2023-02-28T15:57:41;7.00;99.90
22319;DHT22;11327;52.334;9.506;2023-02-28T16:01:08;7.00;99.90
22319;DHT22;11327;52.334;9.506;2023-02-28T16:04:29;7.00;99.90
22319;DHT22;11327;52.334;9.506;2023-02-28T16:07:52;6.90;99.90
22319;DHT22;11327;52.334;9.506;2023-02-28T16:11:12;6.80;99.90
22319;DHT22;11327;52.334;9.506;2023-02-28T16:14:35;6.70;99.90
22319;DHT22;11327;52.334;9.506;2023-02-28T16:17:58;6.50;99.90
22319;DHT22;11327;52.334;9.506;2023-02-28T16:21:18;6.40;99.90
22319;DHT22;11327;52.334;9.506;2023-02-28T16:24:39;6.20;99.90
22319;DHT22;11327;52.334;9.506;2023-02-28T16:28:01;6.00;99.90
22319;DHT22;11327;52.334;9.506;2023-02-28T16:31:22;5.80;99.90
22319;DHT22;11327;52.334;9.506;2023-02-28T16:34:43;5.70;99.90
22319;DHT22;11327;52.334;9.506;2023-02-28T16:38:04;5.50;99.90
22319;DHT22;11327;52.334;9.506;2023-02-28T16:41:27;5.40;99.90
22319;DHT22;11327;52.334;9.506;2023-02-28T16:44:48;5.30;99.90
22319;DHT22;11327;52.334;9.506;2023-02-28T16:48:15;5.20;99.90
22319;DHT22;11327;52.334;9.506;2023-02-28T16:51:36;5.00;99.90
22319;DHT22;11327;52.334;9.506;2023-02-28T16:54:57;4.90;99.90
22319;DHT22;11327;52.334;9.506;2023-02-28T16:58:18;4.80;99.90
22319;DHT22;11327;52.334;9.506;2023-02-28T17:01:40;4.70;99.90
22319;DHT22;11327;52.334;9.506;2023-02-28T17:05:01;4.50;99.90
22319;DHT22;11327;52.334;9.506;2023-02-28T17:08:22;4.40;99.90
22319;DHT22;11327;52.334;9.506;2023-02-28T17:11:43;4.30;99.90
22319;DHT22;11327;52.334;9.506;2023-02-28T17:15:06;4.20;99.90
22319;DHT22;11327;52.334;9.506;2023-02-28T17:18:27;4.10;99.90
22319;DHT22;11327;52.334;9.506;2023-02-28T17:21:50;4.00;99.90
22319;DHT22;11327;52.334;9.506;2023-02-28T17:25:11;3.90;99.90
22319;DHT22;11327;52.334;9.506;2023-02-28T17:28:32;3.80;99.90
22319;DHT22;11327;52.334;9.506;2023-02-28T17:31:53;3.70;99.90
22319;DHT22;11327;52.334;9.506;2023-02-28T17:35:14;3.60;99.90
22319;DHT22;11327;52.334;9.506;2023-02-28T17:38:35;3.60;99.90
22319;DHT22;11327;52.334;9.506;2023-02-28T17:41:56;3.50;99.90
22319;DHT22;11327;52.334;9.506;2023-02-28T17:45:17;3.40;99.90
22319;DHT22;11327;52.334;9.506;2023-02-28T17:48:38;3.30;99.90
22319;DHT22;11327;52.334;9.506;2023-02-28T17:51:59;3.20;99.90
22319;DHT22;11327;52.334;9.506;2023-02-28T17:55:19;3.20;99.90
22319;DHT22;11327;52.334;9.506;2023-02-28T17:58:40;3.10;99.90
22319;DHT22;11327;52.334;9.506;2023-02-28T18:02:02;3.00;99.90
22319;DHT22;11327;52.334;9.506;2023-02-28T18:05:24;2.90;99.90
22319;DHT22;11327;52.334;9.506;2023-02-28T18:08:45;2.80;99.90
22319;DHT22;11327;52.334;9.506;2023-02-28T18:12:06;2.80;99.90
22319;DHT22;11327;52.334;9.506;2023-02-28T18:15:26;2.70;99.90
22319;DHT22;11327;52.334;9.506;2023-02-28T18:18:48;2.60;99.90
22319;DHT22;11327;52.334;9.506;2023-02-28T18:22:09;2.50;99.90
22319;DHT22;11327;52.334;9.506;2023-02-28T18:25:30;2.40;99.90
22319;DHT22;11327;52.334;9.506;2023-02-28T18:28:50;2.30;99.90
22319;DHT22;11327;52.334;9.506;2023-02-28T18:32:11;2.30;99.90
22319;DHT22;11327;52.334;9.506;2023-02-28T18:35:32;2.20;99.90
22319;DHT22;11327;52.334;9.506;2023-02-28T18:38:56;2.10;99.90
22319;DHT22;11327;52.334;9.506;2023-02-28T18:42:17;2.10;99.90
22319;DHT22;11327;52.334;9.506;2023-02-28T18:45:38;2.00;99.90
22319;DHT22;11327;52.334;9.506;2023-02-28T18:49:00;1.90;99.90
22319;DHT22;11327;52.334;9.506;2023-02-28T18:52:21;1.90;99.90
22319;DHT22;11327;52.334;9.506;2023-02-28T18:55:44;1.80;99.90
22319;DHT22;11327;52.334;9.506;2023-02-28T18:59:05;1.70;99.90
22319;DHT22;11327;52.334;9.506;2023-02-28T19:02:26;1.70;99.90
22319;DHT22;11327;52.334;9.506;2023-02-28T19:05:47;1.60;99.90
22319;DHT22;11327;52.334;9.506;2023-02-28T19:09:08;1.50;99.90
22319;DHT22;11327;52.334;9.506;2023-02-28T19:12:34;1.50;99.90
22319;DHT22;11327;52.334;9.506;2023-02-28T19:16:01;1.40;99.90
22319;DHT22;11327;52.334;9.506;2023-02-28T19:19:22;1.40;99.90
22319;DHT22;11327;52.334;9.506;2023-02-28T19:22:42;1.30;99.90
22319;DHT22;11327;52.334;9.506;2023-02-28T19:26:09;1.20;99.90
22319;DHT22;11327;52.334;9.506;2023-02-28T19:29:30;1.10;99.90
22319;DHT22;11327;52.334;9.506;2023-02-28T19:32:50;1.10;99.90
22319;DHT22;11327;52.334;9.506;2023-02-28T19:36:11;1.10;99.90
22319;DHT22;11327;52.334;9.506;2023-02-28T19:39:32;1.00;99.90
22319;DHT22;11327;52.334;9.506;2023-02-28T19:42:55;1.00;99.90
22319;DHT22;11327;52.334;9.506;2023-02-28T19:46:16;0.90;99.90
22319;DHT22;11327;52.334;9.506;2023-02-28T19:49:38;0.80;99.90
22319;DHT22;11327;52.334;9.506;2023-02-28T19:52:59;0.80;99.90
22319;DHT22;11327;52.334;9.506;2023-02-28T19:56:21;0.80;99.90
22319;DHT22;11327;52.334;9.506;2023-02-28T19:59:43;0.70;99.90
22319;DHT22;11327;52.334;9.506;2023-02-28T20:03:03;0.70;99.90
22319;DHT22;11327;52.334;9.506;2023-02-28T20:06:24;0.60;99.90
22319;DHT22;11327;52.334;9.506;2023-02-28T20:09:48;0.60;99.90
22319;DHT22;11327;52.334;9.506;2023-02-28T20:13:09;0.50;99.90
22319;DHT22;11327;52.334;9.506;2023-02-28T20:16:30;0.50;99.90
22319;DHT22;11327;52.334;9.506;2023-02-28T20:19:51;0.50;99.90
22319;DHT22;11327;52.334;9.506;2023-02-28T20:23:12;0.40;99.90
22319;DHT22;11327;52.334;9.506;2023-02-28T20:26:33;0.40;99.90
22319;DHT22;11327;52.334;9.506;2023-02-28T20:29:54;0.40;99.90
22319;DHT22;11327;52.334;9.506;2023-02-28T20:33:16;0.30;99.90
22319;DHT22;11327;52.334;9.506;2023-02-28T20:36:37;0.20;99.90
22319;DHT22;11327;52.334;9.506;2023-02-28T20:39:58;0.20;99.90
22319;DHT22;11327;52.334;9.506;2023-02-28T20:43:18;0.20;99.90
22319;DHT22;11327;52.334;9.506;2023-02-28T20:46:39;0.10;99.90
22319;DHT22;11327;52.334;9.506;2023-02-28T20:50:02;0.10;99.90
22319;DHT22;11327;52.334;9.506;2023-02-28T20:53:24;0.10;99.90
22319;DHT22;11327;52.334;9.506;2023-02-28T20:56:46;0.10;99.90
22319;DHT22;11327;52.334;9.506;2023-02-28T21:00:08;0.10;99.90
22319;DHT22;11327;52.334;9.506;2023-02-28T21:03:30;0.10;99.90
22319;DHT22;11327;52.334;9.506;2023-02-28T21:06:51;0.10;99.90
22319;DHT22;11327;52.334;9.506;2023-02-28T21:10:12;0.10;99.90
22319;DHT22;11327;52.334;9.506;2023-02-28T21:13:33;0.00;99.90
22319;DHT22;11327;52.334;9.506;2023-02-28T21:16:54;0.00;99.90
22319;DHT22;11327;52.334;9.506;2023-02-28T21:20:15;0.00;99.90
22319;DHT22;11327;52.334;9.506;2023-02-28T21:23:38;-0.20;99.90
22319;DHT22;11327;52.334;9.506;2023-02-28T21:26:58;-0.10;99.90
22319;DHT22;11327;52.334;9.506;2023-02-28T21:30:21;-0.10;99.90
22319;DHT22;11327;52.334;9.506;2023-02-28T21:33:42;-0.10;99.90
22319;DHT22;11327;52.334;9.506;2023-02-28T21:37:03;-0.20;99.90
22319;DHT22;11327;52.334;9.506;2023-02-28T21:40:24;-0.30;99.90
22319;DHT22;11327;52.334;9.506;2023-02-28T21:43:46;-0.30;99.90
22319;DHT22;11327;52.334;9.506;2023-02-28T21:47:06;-0.30;99.90
22319;DHT22;11327;52.334;9.506;2023-02-28T21:50:27;-0.40;99.90
22319;DHT22;11327;52.334;9.506;2023-02-28T21:53:48;-0.40;99.90
22319;DHT22;11327;52.334;9.506;2023-02-28T21:57:09;-0.50;99.90
22319;DHT22;11327;52.334;9.506;2023-02-28T22:00:32;-0.60;99.90
22319;DHT22;11327;52.334;9.506;2023-02-28T22:03:53;-0.60;99.90
22319;DHT22;11327;52.334;9.506;2023-02-28T22:07:14;-0.60;99.90
22319;DHT22;11327;52.334;9.506;2023-02-28T22:10:35;-0.60;99.90
22319;DHT22;11327;52.334;9.506;2023-02-28T22:13:57;-0.70;99.90
22319;DHT22;11327;52.334;9.506;2023-02-28T22:17:18;-0.70;99.90
22319;DHT22;11327;52.334;9.506;2023-02-28T22:20:39;-0.80;99.90
22319;DHT22;11327;52.334;9.506;2023-02-28T22:24:00;-0.80;99.90
22319;DHT22;11327;52.334;9.506;2023-02-28T22:27:21;-0.90;99.90
22319;DHT22;11327;52.334;9.506;2023-02-28T22:30:42;-0.90;99.90
22319;DHT22;11327;52.334;9.506;2023-02-28T22:34:05;-0.90;99.90
22319;DHT22;11327;52.334;9.506;2023-02-28T22:37:27;-1.00;99.90
22319;DHT22;11327;52.334;9.506;2023-02-28T22:40:48;-1.00;99.90
22319;DHT22;11327;52.334;9.506;2023-02-28T22:44:10;-1.00;99.90
22319;DHT22;11327;52.334;9.506;2023-02-28T22:47:31;-1.00;99.90
22319;DHT22;11327;52.334;9.506;2023-02-28T22:51:12;-1.10;99.90
22319;DHT22;11327;52.334;9.506;2023-02-28T22:54:32;-1.00;99.90
22319;DHT22;11327;52.334;9.506;2023-02-28T22:57:53;-1.00;99.90
22319;DHT22;11327;52.334;9.506;2023-02-28T23:01:15;-0.90;99.90
22319;DHT22;11327;52.334;9.506;2023-02-28T23:04:36;-0.90;99.90
22319;DHT22;11327;52.334;9.506;2023-02-28T23:07:57;-0.90;99.90
22319;DHT22;11327;52.334;9.506;2023-02-28T23:11:34;-1.00;99.90
22319;DHT22;11327;52.334;9.506;2023-02-28T23:14:52;-1.00;99.90
22319;DHT22;11327;52.334;9.506;2023-02-28T23:18:13;-1.10;99.90
22319;DHT22;11327;52.334;9.506;2023-02-28T23:21:35;-1.20;99.90
22319;DHT22;11327;52.334;9.506;2023-02-28T23:24:56;-1.20;99.90
22319;DHT22;11327;52.334;9.506;2023-02-28T23:28:17;-1.30;99.90